Time;durP1;ratioP1;P1;durP2;ratioP2;P2;SDS_P1;SDS_P2;PMS_P1;PMS_P2;Temp;Humidity;BMP_temperature;BMP_pressure;BME280_temperature;BME280_humidity;BME280_pressure;Samples;Min_cycle;Max_cycle;Signal;HPM_P1;HPM_P2
2021/06/02 00:00:19;;;;;;;;;11.25;10.25;;;;;27.83;33.61;100190.53;4951483;28;45264;-75
2021/06/02 00:02:49;;;;;;;;;10.25;9.50;;;;;27.80;33.81;100194.31;4946767;28;45252;-75
2021/06/02 00:05:15;;;;;;;;;10.75;10.00;;;;;27.77;33.75;100191.81;4962267;28;45490;-75
2021/06/02 00:07:41;;;;;;;;;9.00;9.00;;;;;27.77;34.03;100190.97;4962653;28;45385;-75
2021/06/02 00:10:08;;;;;;;;;10.75;9.75;;;;;27.73;34.37;100187.66;4946417;28;45420;-75
2021/06/02 00:12:33;;;;;;;;;8.75;7.75;;;;;27.72;33.91;100190.44;4946496;28;45259;-75
2021/06/02 00:14:59;;;;;;;;;13.50;10.25;;;;;27.70;34.04;100187.84;4963578;28;45386;-75
2021/06/02 00:17:24;;;;;;;;;10.25;10.25;;;;;27.68;34.21;100191.63;4946340;28;45269;-75
2021/06/02 00:19:50;;;;;;;;;8.75;8.75;;;;;27.66;34.50;100193.53;4962342;28;45307;-75
2021/06/02 00:22:15;;;;;;;;;10.00;10.00;;;;;27.64;34.19;100196.31;4958120;28;55467;-75
2021/06/02 00:24:41;;;;;;;;;11.50;11.50;;;;;27.58;34.37;100194.91;4981478;28;51076;-75
2021/06/02 00:27:09;;;;;;;;;12.25;11.25;;;;;27.58;34.73;100192.22;4981821;28;45287;-75
2021/06/02 00:29:35;;;;;;;;;12.25;12.25;;;;;27.56;34.84;100202.22;4981981;28;45449;-75
2021/06/02 00:32:05;;;;;;;;;9.50;9.50;;;;;27.57;34.34;100203.06;4965735;28;45422;-75
2021/06/02 00:34:31;;;;;;;;;11.50;11.50;;;;;27.57;34.72;100200.38;4964345;28;48380;-76
2021/06/02 00:36:58;;;;;;;;;11.25;11.25;;;;;27.58;34.49;100202.97;4965627;28;45280;-76
2021/06/02 00:39:23;;;;;;;;;13.50;12.75;;;;;27.58;34.91;100205.63;4981664;28;45334;-75
2021/06/02 00:41:49;;;;;;;;;11.50;10.50;;;;;27.55;34.75;100191.59;4982988;28;45313;-75
2021/06/02 00:44:16;;;;;;;;;11.75;10.50;;;;;27.59;34.67;100190.41;4981220;28;45918;-75
2021/06/02 00:46:42;;;;;;;;;10.75;9.75;;;;;27.56;34.76;100198.69;4981511;28;45277;-75
2021/06/02 00:49:09;;;;;;;;;11.25;11.25;;;;;27.53;35.03;100204.22;4982554;28;45246;-75
2021/06/02 00:51:35;;;;;;;;;10.25;8.50;;;;;27.51;34.88;100198.13;4974523;28;45540;-73
2021/06/02 00:54:00;;;;;;;;;10.50;10.50;;;;;27.51;34.79;100204.34;4983675;28;45446;-75
2021/06/02 00:56:37;;;;;;;;;13.00;13.00;;;;;27.52;34.94;100202.53;4982579;28;45266;-74
2021/06/02 00:59:03;;;;;;;;;13.25;10.00;;;;;27.49;34.93;100200.06;4989839;28;45436;-74
2021/06/02 01:01:31;;;;;;;;;12.25;12.25;;;;;27.46;34.54;100193.09;4988173;28;45472;-74
2021/06/02 01:03:57;;;;;;;;;12.50;12.25;;;;;27.48;34.75;100196.53;4981180;28;45456;-74
2021/06/02 01:06:24;;;;;;;;;13.00;12.00;;;;;27.45;35.13;100195.88;4964933;28;45280;-74
2021/06/02 01:08:49;;;;;;;;;12.00;10.75;;;;;27.42;34.95;100191.59;4981279;28;45270;-74
2021/06/02 01:11:15;;;;;;;;;9.25;9.25;;;;;27.40;34.83;100190.84;4964443;28;53791;-74
2021/06/02 01:13:41;;;;;;;;;11.00;11.00;;;;;27.40;35.21;100193.53;4972229;28;45406;-74
2021/06/02 01:16:07;;;;;;;;;12.00;11.00;;;;;27.38;35.05;100189.25;4967769;28;45369;-74
2021/06/02 01:18:34;;;;;;;;;11.75;10.75;;;;;27.40;34.81;100185.47;4983731;28;59588;-74
2021/06/02 01:21:00;;;;;;;;;11.00;9.75;;;;;27.24;35.11;100166.06;4982790;28;45377;-74
2021/06/02 01:23:25;;;;;;;;;13.00;8.00;;;;;27.27;35.35;100171.19;4968099;28;48178;-74
2021/06/02 01:25:50;;;;;;;;;14.00;11.00;;;;;27.36;35.16;100185.78;4967503;28;58921;-74
2021/06/02 01:28:16;;;;;;;;;11.00;9.25;;;;;27.25;35.16;100171.31;4968002;28;45426;-74
2021/06/02 01:30:41;;;;;;;;;9.75;9.00;;;;;27.36;35.04;100188.47;4967481;28;57784;-74
2021/06/02 01:33:33;;;;;;;;;10.00;8.50;;;;;27.35;35.32;100190.28;4958244;28;58737;-74
2021/06/02 01:36:15;;;;;;;;;13.00;12.00;;;;;27.31;35.53;100186.97;5003673;28;45473;-74
2021/06/02 01:39:37;;;;;;;;;12.50;12.00;;;;;27.30;35.36;100192.44;4987843;28;45569;-75
2021/06/02 01:42:40;;;;;;;;;11.75;11.25;;;;;27.26;35.65;100194.47;4960351;28;45238;-74
2021/06/02 01:45:23;;;;;;;;;12.75;11.75;;;;;27.22;35.95;100186.75;4959165;28;45481;-74
2021/06/02 01:47:54;;;;;;;;;11.50;9.25;;;;;27.23;35.76;100192.00;4978420;28;45325;-74
2021/06/02 01:50:20;;;;;;;;;13.00;12.00;;;;;27.24;35.45;100192.84;4968092;28;45340;-74
2021/06/02 01:53:23;;;;;;;;;11.00;10.50;;;;;27.23;35.65;100191.16;5011520;28;45520;-74
2021/06/02 01:55:58;;;;;;;;;12.00;12.00;;;;;27.22;36.05;100186.75;5008264;28;46361;-74
2021/06/02 01:58:53;;;;;;;;;12.00;12.00;;;;;27.22;35.69;100187.63;5001614;28;45388;-74
2021/06/02 02:01:44;;;;;;;;;13.00;12.00;;;;;27.23;35.73;100188.47;5006669;28;45270;-75
2021/06/02 02:04:47;;;;;;;;;10.50;9.25;;;;;27.24;35.75;100190.19;5010683;28;45325;-74
2021/06/02 02:07:30;;;;;;;;;13.75;10.25;;;;;27.23;36.17;100173.25;5020980;28;46107;-75
2021/06/02 02:10:11;;;;;;;;;10.75;10.75;;;;;27.21;35.71;100177.88;5021073;28;45301;-74
2021/06/02 02:12:36;;;;;;;;;10.00;10.00;;;;;27.22;35.85;100181.41;4983495;28;45316;-74
2021/06/02 02:15:20;;;;;;;;;10.00;9.75;;;;;27.20;35.85;100183.34;5006918;28;45247;-74
2021/06/02 02:17:53;;;;;;;;;11.00;9.75;;;;;27.17;35.99;100181.69;4989614;28;47437;-74
2021/06/02 02:20:31;;;;;;;;;11.50;11.50;;;;;27.17;35.81;100178.16;4983872;28;45549;-74
2021/06/02 02:23:12;;;;;;;;;11.75;11.00;;;;;27.18;35.86;100187.91;4983117;28;45413;-74
2021/06/02 02:25:56;;;;;;;;;11.25;10.25;;;;;27.16;36.05;100181.81;4999995;28;45512;-74
2021/06/02 02:28:44;;;;;;;;;9.75;9.75;;;;;27.13;36.10;100195.44;5009412;28;45535;-74
2021/06/02 02:31:31;;;;;;;;;10.75;10.50;;;;;27.15;36.15;100196.16;4988344;28;45598;-74
2021/06/02 02:34:11;;;;;;;;;11.50;11.50;;;;;27.12;35.98;100207.09;5000950;28;45290;-74
2021/06/02 02:36:44;;;;;;;;;10.25;10.25;;;;;27.07;36.34;100199.38;5000839;28;45381;-74
2021/06/02 02:39:14;;;;;;;;;14.00;11.00;;;;;27.06;36.29;100194.97;4967738;28;47251;-74
2021/06/02 02:42:17;;;;;;;;;11.50;10.25;;;;;27.03;36.41;100198.72;5002957;28;45505;-74
2021/06/02 02:45:04;;;;;;;;;11.75;11.75;;;;;27.02;36.40;100196.13;5011953;28;45521;-74
2021/06/02 02:47:51;;;;;;;;;13.00;12.00;;;;;27.00;36.70;100190.84;5000992;28;45333;-74
2021/06/02 02:50:25;;;;;;;;;11.50;11.25;;;;;26.98;36.63;100186.56;4985097;28;47170;-74
2021/06/02 02:53:15;;;;;;;;;12.00;10.75;;;;;26.96;36.42;100197.38;4986270;28;45336;-74
2021/06/02 02:55:40;;;;;;;;;9.25;9.25;;;;;26.95;36.52;100198.34;4988247;28;45305;-74
2021/06/02 02:58:50;;;;;;;;;11.50;10.50;;;;;26.97;36.62;100195.56;4956429;28;61843;-74
2021/06/02 03:01:22;;;;;;;;;11.00;9.75;;;;;26.94;36.90;100191.28;4905854;28;46394;-74
2021/06/02 03:04:05;;;;;;;;;12.00;12.00;;;;;26.93;36.69;100186.00;4885980;29;46173;-74
2021/06/02 03:06:33;;;;;;;;;12.75;10.75;;;;;26.93;36.73;100200.28;4942604;28;45211;-74
2021/06/02 03:09:06;;;;;;;;;11.50;11.50;;;;;26.91;36.86;100201.34;4986503;28;46090;-74
2021/06/02 03:11:41;;;;;;;;;11.00;11.00;;;;;26.90;36.78;100191.59;5002148;28;47086;-74
2021/06/02 03:14:25;;;;;;;;;11.25;11.25;;;;;26.85;36.64;100199.94;5003617;28;45552;-74
2021/06/02 03:17:09;;;;;;;;;10.25;10.00;;;;;26.88;36.98;100207.75;4982851;28;45343;-75
2021/06/02 03:19:40;;;;;;;;;13.50;11.50;;;;;26.87;36.88;100198.00;4967835;28;45279;-75
2021/06/02 03:22:17;;;;;;;;;11.00;11.00;;;;;26.87;37.25;100200.69;4962698;28;47230;-75
2021/06/02 03:24:46;;;;;;;;;10.00;10.00;;;;;26.85;37.20;100196.41;4963966;28;45306;-75
2021/06/02 03:27:30;;;;;;;;;14.25;14.25;;;;;26.82;37.43;100194.78;4979453;28;45187;-75
2021/06/02 03:30:09;;;;;;;;;13.50;13.50;;;;;26.81;36.96;100187.69;4983709;28;45351;-75
2021/06/02 03:32:51;;;;;;;;;11.50;11.50;;;;;26.79;37.04;100195.00;4998784;28;45696;-75
2021/06/02 03:35:20;;;;;;;;;14.25;13.25;;;;;26.76;37.31;100193.38;4963186;28;45881;-75
2021/06/02 03:38:07;;;;;;;;;9.50;9.50;;;;;26.76;37.30;100190.72;4993153;28;45485;-75
2021/06/02 03:40:35;;;;;;;;;10.25;10.25;;;;;26.76;37.24;100196.06;4980484;28;45230;-75
2021/06/02 03:43:16;;;;;;;;;13.00;11.25;;;;;26.75;37.32;100190.78;4979053;28;45263;-75
2021/06/02 03:45:52;;;;;;;;;14.75;11.75;;;;;26.74;37.47;100191.75;4978980;28;45337;-75
2021/06/02 03:48:48;;;;;;;;;15.00;10.50;;;;;26.71;37.39;100181.25;4979025;28;45336;-76
2021/06/02 03:51:25;;;;;;;;;12.75;11.50;;;;;26.71;37.27;100194.63;4989801;28;45595;-75
2021/06/02 03:53:54;;;;;;;;;12.00;11.50;;;;;26.71;37.33;100197.31;4995293;28;48305;-75
2021/06/02 03:57:08;;;;;;;;;10.00;9.25;;;;;26.70;37.60;100199.13;4991470;28;45400;-76
2021/06/02 03:59:44;;;;;;;;;10.75;9.25;;;;;26.71;37.40;100200.84;4994787;28;45353;-75
2021/06/02 04:02:40;;;;;;;;;10.50;10.50;;;;;26.67;37.51;100191.31;4982244;28;45455;-75
2021/06/02 04:05:05;;;;;;;;;13.50;11.75;;;;;26.67;37.60;100193.09;4981698;28;47403;-75
2021/06/02 04:07:31;;;;;;;;;15.25;13.50;;;;;26.64;37.88;100194.19;4987913;28;45537;-76
2021/06/02 04:10:09;;;;;;;;;12.50;10.75;;;;;26.62;37.58;100198.78;4997977;28;45489;-75
2021/06/02 04:12:59;;;;;;;;;14.75;12.25;;;;;26.59;37.76;100200.81;4981927;28;45230;-75
2021/06/02 04:15:26;;;;;;;;;11.00;11.00;;;;;26.56;37.74;100201.84;4975333;28;46186;-75
2021/06/02 04:17:52;;;;;;;;;15.25;13.50;;;;;26.57;37.91;100210.75;4965446;28;45393;-75
2021/06/02 04:20:19;;;;;;;;;12.75;12.75;;;;;26.55;37.64;100199.28;4965725;28;45287;-76
2021/06/02 04:22:48;;;;;;;;;11.25;11.25;;;;;26.54;37.96;100206.47;4978789;28;45532;-75
2021/06/02 04:25:15;;;;;;;;;11.50;11.00;;;;;26.40;38.02;100182.41;4968904;28;47509;-75
2021/06/02 04:27:40;;;;;;;;;11.75;11.25;;;;;26.45;37.73;100191.84;4984012;28;45425;-75
2021/06/02 04:30:06;;;;;;;;;13.25;11.00;;;;;26.43;37.86;100190.25;4998414;28;45491;-75
2021/06/02 04:32:40;;;;;;;;;13.00;12.75;;;;;26.50;38.25;100207.63;4978370;28;45489;-75
2021/06/02 04:35:10;;;;;;;;;11.75;10.50;;;;;26.38;38.07;100198.56;4959578;28;45434;-75
2021/06/02 04:37:36;;;;;;;;;11.50;9.25;;;;;26.42;38.03;100193.88;4981101;28;45356;-75
2021/06/02 04:40:03;;;;;;;;;11.00;11.00;;;;;26.51;37.86;100206.66;4991958;28;45541;-75
2021/06/02 04:42:29;;;;;;;;;10.75;10.75;;;;;26.49;38.29;100195.19;4997595;28;45638;-74
2021/06/02 04:44:55;;;;;;;;;12.25;12.25;;;;;26.40;38.09;100191.28;4956256;28;47235;-74
2021/06/02 04:47:21;;;;;;;;;12.00;10.00;;;;;26.46;38.32;100212.31;4978364;28;45351;-75
2021/06/02 04:50:00;;;;;;;;;13.75;12.75;;;;;26.46;38.21;100214.13;4972572;28;45449;-76
2021/06/02 04:52:32;;;;;;;;;12.50;12.50;;;;;26.45;38.58;100207.06;4977907;28;45512;-75
2021/06/02 04:55:27;;;;;;;;;14.00;13.50;;;;;26.48;38.05;100202.34;4981274;28;47157;-75
2021/06/02 04:57:55;;;;;;;;;11.00;11.00;;;;;26.49;38.45;100213.91;4960052;28;45299;-77
2021/06/02 05:03:54;;;;;;;;;11.00;10.75;;;;;26.37;38.20;100228.06;5000612;28;45342;-77
2021/06/02 05:06:57;;;;;;;;;10.50;10.50;;;;;26.30;38.13;100224.91;4981585;28;45307;-77
2021/06/02 05:10:00;;;;;;;;;14.75;14.50;;;;;26.23;38.40;100225.41;4993222;28;45792;-77
2021/06/02 05:12:44;;;;;;;;;12.50;10.75;;;;;26.17;38.69;100229.34;5003195;28;45332;-75
2021/06/02 05:15:33;;;;;;;;;12.00;11.50;;;;;26.13;38.81;100230.50;5002020;28;45430;-79
2021/06/02 05:18:23;;;;;;;;;15.25;12.25;;;;;26.10;38.91;100242.25;5001589;28;45991;-75
2021/06/02 05:23:39;;;;;;;;;11.50;11.50;;;;;26.07;39.26;100237.09;4989223;28;45287;-78
2021/06/02 05:26:41;;;;;;;;;13.00;12.00;;;;;26.00;39.74;100226.88;5005510;28;45412;-78
2021/06/02 05:29:21;;;;;;;;;12.75;11.25;;;;;26.05;39.39;100244.34;4986764;28;45636;-80
2021/06/02 05:32:20;;;;;;;;;12.75;12.00;;;;;25.99;39.82;100241.22;4993967;28;45503;-80
2021/06/02 05:35:16;;;;;;;;;14.25;13.00;;;;;25.99;39.87;100238.53;4989788;28;45540;-84
2021/06/02 05:38:23;;;;;;;;;13.75;13.75;;;;;25.98;39.58;100243.03;5000878;28;45340;-80
2021/06/02 05:40:54;;;;;;;;;12.75;12.75;;;;;25.97;39.69;100241.28;4979307;28;45720;-84
2021/06/02 05:43:47;;;;;;;;;14.25;12.75;;;;;25.86;39.89;100244.63;5002650;28;45519;-84
2021/06/02 05:46:19;;;;;;;;;17.00;14.00;;;;;25.91;40.29;100250.56;4989787;28;45267;-78
2021/06/02 05:48:50;;;;;;;;;12.75;11.75;;;;;25.90;40.48;100264.91;5021086;28;45235;-82
2021/06/02 05:51:21;;;;;;;;;13.50;13.50;;;;;25.86;39.98;100268.69;5006941;28;46096;-80
2021/06/02 05:53:59;;;;;;;;;14.25;14.00;;;;;25.82;40.36;100259.16;5004928;28;45440;-80
2021/06/02 05:57:08;;;;;;;;;18.25;14.25;;;;;25.84;39.96;100257.25;5001592;28;45405;-80
2021/06/02 06:00:22;;;;;;;;;14.00;14.00;;;;;25.80;40.47;100261.06;4993636;28;45667;-83
2021/06/02 06:03:00;;;;;;;;;17.00;13.00;;;;;25.78;40.38;100256.75;4964816;28;46214;-81
2021/06/02 06:05:44;;;;;;;;;13.25;12.25;;;;;25.81;40.42;100259.25;4967350;28;45461;-82
2021/06/02 06:08:37;;;;;;;;;13.00;13.00;;;;;25.84;40.75;100273.28;4983623;28;45255;-76
2021/06/02 06:12:00;;;;;;;;;;;;;;;;;;;;;
2021/06/02 06:14:52;;;;;;;;;15.75;15.25;;;;;25.86;41.24;100241.97;5001785;28;74523;-75
2021/06/02 06:17:36;;;;;;;;;13.75;13.75;;;;;26.01;41.24;100266.03;4979114;28;45752;-72
2021/06/02 06:20:22;;;;;;;;;15.75;14.00;;;;;26.05;41.09;100267.56;5002249;28;45436;-73
2021/06/02 06:23:11;;;;;;;;;18.00;16.75;;;;;26.08;41.62;100262.91;4996280;28;45364;-72
2021/06/02 06:25:51;;;;;;;;;14.50;14.50;;;;;26.14;41.58;100269.66;4994486;28;47561;-74
2021/06/02 06:28:35;;;;;;;;;15.50;13.50;;;;;26.17;40.81;100272.16;5004978;28;45510;-73
2021/06/02 06:31:05;;;;;;;;;18.75;16.75;;;;;26.12;41.09;100263.53;5004746;28;45289;-73
2021/06/02 06:33:30;;;;;;;;;14.75;14.75;;;;;26.15;41.67;100271.38;4956935;28;45920;-72
2021/06/02 06:35:58;;;;;;;;;15.50;14.75;;;;;26.19;41.46;100279.13;4967032;28;55296;-75
2021/06/02 06:38:50;;;;;;;;;15.75;15.75;;;;;26.23;41.49;100284.25;4967352;28;45262;-73
2021/06/02 06:41:16;;;;;;;;;18.25;17.00;;;;;26.21;41.59;100271.84;5007756;28;45380;-75
2021/06/02 06:43:41;;;;;;;;;17.00;15.50;;;;;26.24;41.85;100269.94;4986110;28;45346;-78
2021/06/02 06:46:10;;;;;;;;;20.75;16.25;;;;;26.28;41.51;100272.31;4982629;28;45482;-74
2021/06/02 06:48:35;;;;;;;;;15.75;15.50;;;;;26.31;41.72;100273.94;4950858;28;45666;-74
2021/06/02 06:51:14;;;;;;;;;;;;;;;;;;;;;
2021/06/02 06:53:40;;;;;;;;;17.50;16.25;;;;;26.37;41.93;100279.75;4989383;28;73402;-72
2021/06/02 06:56:06;;;;;;;;;15.75;15.75;;;;;26.36;41.97;100278.06;4986065;28;45404;-73
2021/06/02 06:58:31;;;;;;;;;17.00;15.75;;;;;26.40;41.92;100281.41;4983860;28;45403;-74
2021/06/02 07:00:57;;;;;;;;;16.00;15.25;;;;;26.37;41.83;100277.09;4980301;28;51979;-74
2021/06/02 07:03:23;;;;;;;;;14.25;13.25;;;;;26.33;41.92;100269.38;4987089;28;45475;-72
2021/06/02 07:05:48;;;;;;;;;14.00;13.75;;;;;26.38;42.15;100278.84;4974003;28;57390;-73
2021/06/02 07:08:14;;;;;;;;;16.00;15.50;;;;;26.43;42.11;100283.91;4982429;28;45340;-73
2021/06/02 07:10:39;;;;;;;;;15.00;13.25;;;;;26.38;42.20;100278.84;4966475;28;45501;-73
2021/06/02 07:13:08;;;;;;;;;16.25;15.75;;;;;26.44;42.02;100277.59;4981943;28;45562;-74
2021/06/02 07:15:33;;;;;;;;;14.00;14.00;;;;;26.45;42.86;100282.84;4983425;28;45381;-74
2021/06/02 07:17:59;;;;;;;;;16.50;14.00;;;;;26.46;42.68;100283.69;5005563;28;45610;-74
2021/06/02 07:20:25;;;;;;;;;15.75;14.75;;;;;26.45;42.61;100290.00;4982491;28;45443;-73
2021/06/02 07:22:51;;;;;;;;;17.75;17.75;;;;;26.50;42.68;100290.59;4962568;28;45360;-73
2021/06/02 07:25:17;;;;;;;;;13.50;12.50;;;;;26.49;42.80;100294.19;4962716;28;46524;-73
2021/06/02 07:27:46;;;;;;;;;19.25;16.00;;;;;26.51;42.65;100288.78;4991479;28;45482;-73
2021/06/02 07:30:13;;;;;;;;;18.00;16.00;;;;;26.57;42.68;100291.91;4979314;28;45259;-73
2021/06/02 07:32:38;;;;;;;;;16.00;15.50;;;;;26.58;42.75;100293.59;4979767;28;45582;-74
2021/06/02 07:35:04;;;;;;;;;17.50;16.00;;;;;26.58;42.75;100284.72;4978661;28;46220;-74
2021/06/02 07:37:31;;;;;;;;;15.50;15.25;;;;;26.62;42.79;100291.63;4979760;28;45317;-72
2021/06/02 07:40:29;;;;;;;;;13.75;13.00;;;;;26.65;43.03;100286.91;4979900;28;45550;-74
2021/06/02 07:42:54;;;;;;;;;17.00;16.00;;;;;26.73;42.76;100302.47;4994300;28;45335;-72
2021/06/02 07:45:20;;;;;;;;;19.00;17.25;;;;;26.73;42.93;100300.66;4949293;28;46785;-73
2021/06/02 07:47:45;;;;;;;;;16.00;15.75;;;;;26.77;42.94;100298.66;4973897;28;45337;-74
2021/06/02 07:50:12;;;;;;;;;14.00;13.25;;;;;26.79;42.98;100304.78;4965890;28;45481;-73
2021/06/02 07:52:37;;;;;;;;;16.75;16.25;;;;;26.81;43.22;100310.88;5001688;28;45435;-73
2021/06/02 07:55:03;;;;;;;;;16.25;15.75;;;;;26.84;42.93;100299.94;4984764;28;45398;-73
2021/06/02 07:57:28;;;;;;;;;17.50;16.50;;;;;26.78;43.13;100305.72;4972297;28;45617;-72
2021/06/02 07:59:54;;;;;;;;;16.50;15.25;;;;;26.80;42.96;100316.34;4968105;28;45404;-72
2021/06/02 08:02:22;;;;;;;;;14.75;12.25;;;;;26.78;43.01;100313.75;4965454;28;49952;-72
2021/06/02 08:04:50;;;;;;;;;16.00;14.00;;;;;26.83;43.55;100311.63;4979291;28;46205;-72
2021/06/02 08:07:16;;;;;;;;;16.25;15.75;;;;;26.86;43.22;100310.59;4974268;28;45360;-72
2021/06/02 08:09:43;;;;;;;;;16.00;13.50;;;;;26.87;43.46;100304.28;4972769;28;45453;-73
2021/06/02 08:12:10;;;;;;;;;19.00;17.25;;;;;26.92;43.38;100316.38;4986202;28;45595;-72
2021/06/02 08:14:36;;;;;;;;;16.00;13.25;;;;;26.95;43.79;100315.34;4969774;28;47352;-72
2021/06/02 08:17:01;;;;;;;;;17.50;14.75;;;;;26.97;43.23;100313.41;4985970;28;45409;-73
2021/06/02 08:19:27;;;;;;;;;16.00;14.50;;;;;27.00;43.53;100311.38;4966576;28;45359;-73
2021/06/02 08:21:53;;;;;;;;;14.75;14.25;;;;;26.99;43.55;100308.81;4957826;28;45252;-73
2021/06/02 08:24:18;;;;;;;;;15.75;15.00;;;;;26.97;43.43;100321.44;4966898;28;47685;-74
2021/06/02 08:26:46;;;;;;;;;16.75;16.25;;;;;26.97;43.43;100318.78;4966279;28;46031;-73
2021/06/02 08:29:11;;;;;;;;;16.50;15.25;;;;;27.08;43.43;100332.34;4951579;28;45276;-73
2021/06/02 08:31:37;;;;;;;;;13.75;13.75;;;;;27.07;43.50;100335.13;4958318;28;45617;-73
2021/06/02 08:34:02;;;;;;;;;14.00;14.00;;;;;27.09;43.78;100334.06;4965769;28;47586;-73
2021/06/02 08:36:28;;;;;;;;;16.75;16.75;;;;;27.12;43.52;100327.66;4957087;28;45338;-74
2021/06/02 08:38:56;;;;;;;;;14.25;13.50;;;;;27.15;43.97;100327.44;4985574;28;45278;-74
2021/06/02 08:41:21;;;;;;;;;15.00;14.75;;;;;27.17;43.67;100334.41;4968820;28;45391;-74
2021/06/02 08:43:47;;;;;;;;;20.00;17.25;;;;;27.22;43.77;100334.13;5001948;28;46279;-73
2021/06/02 08:46:14;;;;;;;;;14.50;12.75;;;;;27.28;43.97;100344.44;4982228;28;45337;-73
2021/06/02 08:48:42;;;;;;;;;15.75;15.25;;;;;27.29;43.62;100327.41;4950983;28;45359;-73
2021/06/02 08:51:07;;;;;;;;;16.00;16.00;;;;;27.24;43.83;100318.78;4974214;28;46380;-72
2021/06/02 08:53:33;;;;;;;;;20.75;17.25;;;;;27.37;43.65;100325.06;4970456;28;47538;-73
2021/06/02 08:56:02;;;;;;;;;15.00;15.00;;;;;27.39;43.64;100323.13;4989330;28;45444;-73
2021/06/02 08:58:27;;;;;;;;;16.50;15.75;;;;;27.39;43.85;100325.81;4968769;28;45370;-73
2021/06/02 09:00:53;;;;;;;;;16.25;16.25;;;;;27.42;43.67;100330.09;4976432;28;45365;-72
2021/06/02 09:03:18;;;;;;;;;20.00;18.25;;;;;27.38;43.65;100321.41;4980268;28;45678;-72
2021/06/02 09:05:44;;;;;;;;;17.75;16.75;;;;;27.45;43.96;100332.56;4985747;28;45244;-72
2021/06/02 09:08:12;;;;;;;;;17.00;14.25;;;;;27.48;43.39;100325.19;4982234;28;45284;-72
2021/06/02 09:10:39;;;;;;;;;18.00;16.25;;;;;27.53;43.84;100325.72;4965300;28;45500;-73
2021/06/02 09:13:05;;;;;;;;;16.75;16.50;;;;;27.56;43.63;100322.84;4964919;28;47829;-73
2021/06/02 09:15:34;;;;;;;;;19.00;16.00;;;;;27.59;43.52;100322.63;4948964;28;46076;-73
2021/06/02 09:18:03;;;;;;;;;18.50;16.75;;;;;27.63;43.80;100314.38;4981107;28;45509;-72
2021/06/02 09:20:43;;;;;;;;;15.00;15.00;;;;;27.67;43.72;100329.34;4965065;28;45433;-72
2021/06/02 09:23:31;;;;;;;;;14.75;13.00;;;;;27.69;43.85;100328.25;4993731;28;47001;-72
2021/06/02 09:26:12;;;;;;;;;19.25;18.00;;;;;27.69;43.38;100322.03;4982462;28;45341;-72
2021/06/02 09:28:48;;;;;;;;;17.25;15.25;;;;;27.70;43.64;100326.44;4985616;28;45270;-72
2021/06/02 09:31:25;;;;;;;;;18.25;15.50;;;;;27.73;43.69;100329.78;4980866;28;45519;-72
2021/06/02 09:33:54;;;;;;;;;18.25;16.75;;;;;27.73;43.21;100334.28;4980665;28;45929;-71
2021/06/02 09:36:28;;;;;;;;;16.25;16.00;;;;;27.73;43.50;100328.91;4994867;28;45456;-72
2021/06/02 09:38:54;;;;;;;;;17.50;17.50;;;;;27.78;43.13;100329.44;4975455;28;45401;-72
2021/06/02 09:41:20;;;;;;;;;15.75;15.00;;;;;27.81;43.58;100326.56;4980677;28;45243;-72
2021/06/02 09:43:45;;;;;;;;;19.75;19.00;;;;;27.84;43.46;100329.03;4994692;28;45483;-72
2021/06/02 09:46:14;;;;;;;;;19.50;17.50;;;;;27.84;43.79;100334.41;4980796;28;45491;-72
2021/06/02 09:48:40;;;;;;;;;16.00;15.00;;;;;27.85;43.90;100333.44;4965838;28;45271;-72
2021/06/02 09:51:05;;;;;;;;;16.00;15.25;;;;;27.86;43.58;100336.00;4997594;28;45350;-72
2021/06/02 09:53:31;;;;;;;;;21.00;19.25;;;;;27.86;43.48;100336.00;4986815;28;45449;-71
2021/06/02 09:55:56;;;;;;;;;18.25;17.00;;;;;27.83;43.52;100330.84;4981819;28;45155;-75
2021/06/02 09:58:22;;;;;;;;;15.75;15.00;;;;;27.82;43.37;100330.97;4978686;28;45306;-72
2021/06/02 10:00:54;;;;;;;;;13.75;13.75;;;;;27.85;43.39;100344.16;4993666;28;45891;-72
2021/06/02 10:03:26;;;;;;;;;16.50;16.00;;;;;27.85;43.58;100339.66;4999386;28;47086;-71
2021/06/02 10:05:51;;;;;;;;;20.50;18.25;;;;;27.80;43.86;100331.06;4999292;28;45368;-72
2021/06/02 10:08:33;;;;;;;;;18.00;17.00;;;;;27.82;43.56;100322.91;5000963;28;45325;-72
2021/06/02 10:11:12;;;;;;;;;15.00;15.00;;;;;27.87;43.62;100336.84;4996180;28;45530;-76
2021/06/02 10:13:38;;;;;;;;;15.75;14.75;;;;;27.88;43.63;100328.69;4970538;28;45309;-73
2021/06/02 10:16:04;;;;;;;;;19.00;17.50;;;;;27.93;43.56;100339.13;4983256;28;45327;-74
2021/06/02 10:18:34;;;;;;;;;17.75;17.75;;;;;27.96;43.87;100338.03;4970751;28;45613;-76
2021/06/02 10:21:13;;;;;;;;;19.50;18.75;;;;;27.90;43.89;100320.56;4971462;28;45582;-74
2021/06/02 10:23:40;;;;;;;;;16.25;16.25;;;;;28.01;43.88;100341.28;4992505;28;47337;-73
2021/06/02 10:26:07;;;;;;;;;18.75;18.50;;;;;28.02;43.93;100351.91;4968429;28;45259;-74
2021/06/02 10:28:32;;;;;;;;;17.25;16.00;;;;;27.99;44.20;100351.25;4976635;28;45450;-72
2021/06/02 10:31:03;;;;;;;;;20.50;18.50;;;;;27.94;44.00;100353.38;4966796;28;45272;-73
2021/06/02 10:33:28;;;;;;;;;21.00;18.50;;;;;27.86;44.58;100353.91;4999578;28;45328;-73
2021/06/02 10:35:55;;;;;;;;;18.00;18.00;;;;;27.86;44.62;100353.91;4980045;28;45542;-72
2021/06/02 10:38:20;;;;;;;;;18.75;17.75;;;;;27.85;44.36;100363.78;4993035;28;45355;-74
2021/06/02 10:40:45;;;;;;;;;17.50;16.50;;;;;27.85;44.67;100360.25;4983490;28;45285;-72
2021/06/02 10:43:25;;;;;;;;;17.75;15.50;;;;;27.85;45.03;100353.06;4966814;28;45556;-73
2021/06/02 10:46:02;;;;;;;;;14.75;14.50;;;;;27.86;44.45;100354.78;4968907;28;45416;-71
2021/06/02 10:48:42;;;;;;;;;17.75;16.75;;;;;27.86;43.94;100356.59;5002622;28;45348;-73
2021/06/02 10:51:44;;;;;;;;;15.75;14.00;;;;;27.89;44.25;100367.13;5002638;28;45448;-72
2021/06/02 10:54:19;;;;;;;;;12.25;12.25;;;;;27.93;43.84;100365.94;4921266;28;46472;-73
2021/06/02 10:56:56;;;;;;;;;16.00;15.25;;;;;27.97;43.87;100363.91;4985271;28;45351;-72
2021/06/02 10:59:29;;;;;;;;;14.25;14.25;;;;;27.98;43.94;100371.00;4991679;28;45424;-72
2021/06/02 11:02:13;;;;;;;;;16.00;16.00;;;;;28.00;43.52;100367.25;5003656;28;45217;-72
2021/06/02 11:04:39;;;;;;;;;16.25;14.50;;;;;27.99;43.72;100365.53;4984310;28;45623;-72
2021/06/02 11:07:16;;;;;;;;;15.75;15.75;;;;;28.04;43.55;100371.41;4982640;28;45349;-72
2021/06/02 11:10:00;;;;;;;;;13.75;13.75;;;;;28.07;43.91;100378.41;4983018;28;45556;-72
2021/06/02 11:12:27;;;;;;;;;16.50;16.50;;;;;28.07;44.76;100376.59;4999073;28;45603;-72
2021/06/02 11:14:53;;;;;;;;;16.75;16.75;;;;;28.10;44.68;100380.88;4979400;28;45607;-73
2021/06/02 11:17:19;;;;;;;;;19.00;16.75;;;;;28.10;45.07;100381.72;4956262;28;45505;-71
2021/06/02 11:19:52;;;;;;;;;17.00;15.75;;;;;28.14;44.64;100382.38;4969957;28;45280;-74
2021/06/02 11:22:26;;;;;;;;;19.00;19.00;;;;;28.13;44.97;100376.16;5002257;28;45707;-73
2021/06/02 11:24:52;;;;;;;;;17.00;15.75;;;;;28.12;44.63;100374.44;4969816;28;47714;-73
2021/06/02 11:27:17;;;;;;;;;13.50;13.50;;;;;28.15;44.31;100381.44;4965785;28;45462;-73
2021/06/02 11:29:48;;;;;;;;;17.00;16.25;;;;;28.15;44.46;100379.59;5000030;28;45309;-72
2021/06/02 11:32:17;;;;;;;;;16.00;14.75;;;;;28.15;44.50;100384.97;4995321;28;45449;-74
2021/06/02 11:34:44;;;;;;;;;17.25;16.50;;;;;28.16;44.58;100388.50;5002280;28;45495;-73
2021/06/02 11:37:11;;;;;;;;;16.50;15.00;;;;;28.15;44.38;100386.78;4982021;28;45429;-74
2021/06/02 11:39:38;;;;;;;;;18.00;16.50;;;;;28.11;44.53;100378.09;4989383;28;45314;-75
2021/06/02 11:42:04;;;;;;;;;19.00;16.75;;;;;28.17;44.56;100395.59;4992439;28;45222;-74
2021/06/02 11:44:30;;;;;;;;;15.50;14.50;;;;;28.17;44.11;100388.41;4950104;28;45639;-74
2021/06/02 11:46:55;;;;;;;;;18.00;18.00;;;;;28.20;44.11;100383.78;4991755;28;45331;-74